Time;durP1;ratioP1;P1;durP2;ratioP2;P2;SDS_P1;SDS_P2;PMS_P1;PMS_P2;Temp;Humidity;BMP_temperature;BMP_pressure;BME280_temperature;BME280_humidity;BME280_pressure;Samples;Min_cycle;Max_cycle;Signal;HPM_P1;HPM_P2
2022/10/13 06:28:17;;;;;;;28.30;15.43;;;11.10;99.90;;;;;;5134760;27;20648;-82
2022/10/13 06:30:48;;;;;;;25.83;16.00;;;11.10;99.90;;;;;;5132714;28;20175;-82
2022/10/13 08:23:16;;;;;;;13.97;10.70;;;12.60;99.90;;;;;;5136714;27;20273;-83
2022/10/13 08:25:43;;;;;;;17.07;11.43;;;12.80;99.90;;;;;;5136209;28;20261;-84
2022/10/13 08:28:21;;;;;;;15.00;10.00;;;13.00;99.90;;;;;;5130384;28;20252;-84
2022/10/13 08:30:47;;;;;;;16.00;11.33;;;13.10;99.90;;;;;;5155606;27;20158;-79
2022/10/13 08:33:13;;;;;;;16.63;11.40;;;13.20;99.90;;;;;;5155979;28;20182;-78
2022/10/13 08:35:38;;;;;;;15.87;10.63;;;13.30;99.90;;;;;;5156407;27;20159;-79
2022/10/13 08:38:04;;;;;;;19.07;11.13;;;13.40;99.90;;;;;;5140654;28;20202;-83
2022/10/13 08:40:30;;;;;;;19.43;10.90;;;13.50;99.90;;;;;;5135010;28;20266;-84
2022/10/13 08:42:56;;;;;;;16.80;10.73;;;13.70;99.90;;;;;;5134844;28;20541;-84
2022/10/13 08:45:26;;;;;;;16.27;10.93;;;13.90;99.90;;;;;;5135132;28;20171;-83
2022/10/13 08:48:03;;;;;;;18.30;11.73;;;14.00;99.90;;;;;;5146876;27;20184;-83
2022/10/13 08:50:34;;;;;;;17.03;10.93;;;14.10;99.90;;;;;;5144638;28;20181;-84
2022/10/13 08:53:04;;;;;;;16.47;11.20;;;14.10;99.90;;;;;;5135062;28;20533;-83
2022/10/13 08:55:34;;;;;;;19.60;10.37;;;14.20;99.90;;;;;;5135557;28;20182;-86
2022/10/13 08:58:05;;;;;;;18.33;11.83;;;14.30;99.90;;;;;;5136109;27;20255;-83
2022/10/13 09:00:30;;;;;;;21.17;10.63;;;14.30;99.90;;;;;;5134179;28;20216;-84
2022/10/13 09:03:22;;;;;;;16.07;10.13;;;14.20;99.90;;;;;;5134918;27;20187;-84
2022/10/13 09:06:12;;;;;;;17.40;10.80;;;14.10;99.90;;;;;;5134538;28;20185;-83
2022/10/13 09:09:01;;;;;;;18.10;10.60;;;14.00;99.90;;;;;;5133369;27;20194;-82
2022/10/13 09:11:33;;;;;;;14.20;10.47;;;14.00;99.90;;;;;;5131855;28;20167;-82
2022/10/13 09:14:02;;;;;;;15.23;11.17;;;14.10;99.90;;;;;;5132168;28;20193;-82
2022/10/13 09:16:39;;;;;;;17.50;11.10;;;14.10;99.90;;;;;;5131690;28;20233;-83
2022/10/13 09:19:24;;;;;;;17.40;11.97;;;14.20;99.90;;;;;;5131885;28;20210;-82
2022/10/13 09:21:52;;;;;;;20.40;11.80;;;14.50;99.90;;;;;;5132589;28;20252;-82
2022/10/13 09:24:20;;;;;;;16.37;11.13;;;14.80;99.90;;;;;;5131699;28;20190;-82
2022/10/13 09:26:48;;;;;;;19.00;10.97;;;15.10;99.90;;;;;;5132828;27;20195;-83
2022/10/13 09:29:23;;;;;;;19.27;10.93;;;15.20;99.90;;;;;;5135050;27;20182;-82
2022/10/13 09:31:49;;;;;;;14.43;10.80;;;15.20;99.90;;;;;;5133141;27;20166;-82
2022/10/13 09:34:18;;;;;;;19.17;10.83;;;15.50;99.90;;;;;;5121340;27;20175;-82
2022/10/13 09:36:58;;;;;;;14.53;10.80;;;15.80;99.90;;;;;;5119552;28;20229;-82
2022/10/13 09:39:24;;;;;;;16.73;11.60;;;16.50;99.90;;;;;;5119182;28;20257;-82
2022/10/13 09:41:50;;;;;;;16.37;11.80;;;16.70;99.90;;;;;;5122050;28;20733;-81
2022/10/13 09:44:30;;;;;;;16.37;10.90;;;16.70;99.90;;;;;;5121890;28;20263;-83
2022/10/13 09:46:59;;;;;;;13.27;10.37;;;16.40;99.90;;;;;;5120010;28;20286;-83
2022/10/13 09:49:38;;;;;;;15.30;10.80;;;16.20;99.90;;;;;;5120143;28;20199;-83
2022/10/13 09:52:15;;;;;;;20.30;12.53;;;16.00;99.90;;;;;;5120422;28;20267;-84
2022/10/13 09:54:48;;;;;;;19.90;10.83;;;16.10;99.90;;;;;;5121774;28;20509;-84
2022/10/13 09:57:33;;;;;;;12.97;9.90;;;16.10;99.90;;;;;;5119572;28;20228;-83
2022/10/13 10:00:05;;;;;;;17.57;10.37;;;16.40;99.90;;;;;;5120496;28;20177;-83
2022/10/13 10:03:00;;;;;;;15.70;9.70;;;16.70;99.90;;;;;;5119020;28;20291;-83
2022/10/13 10:05:33;;;;;;;13.93;9.53;;;17.10;99.90;;;;;;5118445;28;20166;-83
2022/10/13 10:08:14;;;;;;;17.40;12.90;;;17.40;99.90;;;;;;5118890;28;20243;-82
2022/10/13 10:10:41;;;;;;;15.93;10.93;;;17.70;99.90;;;;;;5120013;28;20172;-83
2022/10/13 10:13:11;;;;;;;19.43;11.63;;;17.90;99.90;;;;;;5118799;28;20579;-83
2022/10/13 10:15:58;;;;;;;19.23;11.63;;;18.20;99.90;;;;;;5119289;28;20174;-84
2022/10/13 10:18:45;;;;;;;16.50;10.17;;;18.50;99.90;;;;;;5117721;28;20214;-83
2022/10/13 10:21:25;;;;;;;14.93;9.17;;;18.90;99.90;;;;;;5117814;28;20222;-84
2022/10/13 10:24:06;;;;;;;13.27;10.57;;;19.40;99.90;;;;;;5119454;28;20160;-84
2022/10/13 10:26:58;;;;;;;12.33;8.37;;;19.40;99.90;;;;;;5117802;28;20233;-84
2022/10/13 10:29:45;;;;;;;13.90;7.83;;;19.40;99.90;;;;;;5114133;28;20210;-83
2022/10/13 10:32:49;;;;;;;16.37;9.17;;;19.50;99.90;;;;;;5118296;28;20175;-82
2022/10/13 10:35:39;;;;;;;13.70;9.43;;;19.10;99.90;;;;;;5112503;28;20195;-85
2022/10/13 10:38:47;;;;;;;16.70;10.80;;;18.60;99.90;;;;;;5119632;28;20273;-85
2022/10/13 10:41:34;;;;;;;19.10;8.60;;;18.10;99.90;;;;;;5100036;28;20220;-83
2022/10/13 10:44:04;;;;;;;15.93;10.40;;;17.60;99.90;;;;;;5120149;28;20171;-83
2022/10/13 10:46:42;;;;;;;16.23;10.07;;;17.20;99.90;;;;;;5119058;28;20191;-84
2022/10/13 10:49:31;;;;;;;15.53;10.47;;;17.20;99.90;;;;;;5119101;28;20162;-83
2022/10/13 10:52:00;;;;;;;13.67;10.00;;;17.20;99.90;;;;;;5120476;28;20203;-83
2022/10/13 10:54:44;;;;;;;20.43;13.83;;;17.30;99.90;;;;;;5119440;28;20183;-85
2022/10/13 10:57:20;;;;;;;19.23;11.17;;;17.50;99.90;;;;;;5119487;28;20208;-84
2022/10/13 10:59:58;;;;;;;12.27;9.40;;;17.50;99.90;;;;;;5119464;28;20212;-83
2022/10/13 11:02:35;;;;;;;16.60;8.83;;;17.40;99.90;;;;;;5118165;28;20231;-84
2022/10/13 11:05:01;;;;;;;14.27;8.73;;;17.10;99.90;;;;;;5117882;28;20164;-83
2022/10/13 11:07:26;;;;;;;14.00;8.97;;;16.70;99.90;;;;;;5118142;28;20269;-85
2022/10/13 11:09:52;;;;;;;15.00;9.10;;;16.60;99.90;;;;;;5117979;28;20318;-83
2022/10/13 11:12:18;;;;;;;14.33;8.17;;;16.70;99.90;;;;;;5117955;28;20186;-84
2022/10/13 11:14:53;;;;;;;14.93;8.40;;;16.70;99.90;;;;;;5119229;28;20185;-82
2022/10/13 11:17:19;;;;;;;12.47;8.80;;;16.90;99.90;;;;;;5116190;28;20661;-82
2022/10/13 11:19:47;;;;;;;20.00;9.37;;;17.20;99.90;;;;;;5117492;28;20217;-82
2022/10/13 11:22:17;;;;;;;20.07;9.37;;;17.40;99.90;;;;;;5117604;28;20223;-82
2022/10/13 11:24:44;;;;;;;18.27;8.87;;;17.60;99.90;;;;;;5116558;28;20174;-81
2022/10/13 11:27:13;;;;;;;12.33;8.23;;;17.30;99.90;;;;;;5117624;28;20193;-81
2022/10/13 11:29:45;;;;;;;12.60;8.17;;;17.10;99.90;;;;;;5117901;28;20259;-81
2022/10/13 11:35:09;;;;;;;14.20;8.63;;;16.70;99.90;;;;;;5118568;28;20166;-81
2022/10/13 11:37:40;;;;;;;14.27;8.83;;;16.70;99.90;;;;;;5118317;28;20734;-82
2022/10/13 11:40:28;;;;;;;16.07;8.77;;;16.90;99.90;;;;;;5116983;28;20188;-82
2022/10/13 11:43:14;;;;;;;11.17;8.17;;;17.00;99.90;;;;;;5117652;28;20229;-84
2022/10/13 11:46:00;;;;;;;14.30;8.50;;;17.20;99.90;;;;;;5117440;28;20165;-83
2022/10/13 11:48:48;;;;;;;12.87;8.80;;;17.50;99.90;;;;;;5118703;28;20215;-83
2022/10/13 11:51:43;;;;;;;10.50;7.60;;;17.70;99.90;;;;;;5119686;28;20170;-82
2022/10/13 11:54:39;;;;;;;10.73;7.60;;;18.00;99.90;;;;;;5132393;28;20172;-83
2022/10/13 11:57:23;;;;;;;10.10;7.60;;;18.30;99.90;;;;;;5136591;28;20194;-83
2022/10/13 11:59:53;;;;;;;11.60;7.83;;;18.20;99.90;;;;;;5131487;28;20181;-83
2022/10/13 12:02:19;;;;;;;13.57;7.73;;;18.20;99.90;;;;;;5119843;28;20197;-83
2022/10/13 12:05:04;;;;;;;12.63;7.40;;;18.10;99.90;;;;;;5117369;28;20200;-85
2022/10/13 12:07:35;;;;;;;14.53;8.13;;;17.70;99.90;;;;;;5117203;28;20219;-85
2022/10/13 12:10:06;;;;;;;18.33;12.10;;;17.60;99.90;;;;;;5118825;28;20187;-82
2022/10/13 12:12:32;;;;;;;13.10;8.57;;;17.60;99.90;;;;;;5117863;28;20208;-83
2022/10/13 12:14:58;;;;;;;22.23;12.30;;;17.80;99.90;;;;;;5117976;28;20212;-82
2022/10/13 12:17:30;;;;;;;15.73;12.40;;;18.00;99.90;;;;;;5118196;28;20594;-84
2022/10/13 12:20:16;;;;;;;16.90;8.67;;;18.20;99.90;;;;;;5117729;28;20670;-82
2022/10/13 12:22:50;;;;;;;27.80;20.80;;;18.30;99.90;;;;;;5116160;28;20270;-85
2022/10/13 12:25:17;;;;;;;16.50;9.77;;;18.50;99.90;;;;;;5117982;28;20178;-83
2022/10/13 12:27:49;;;;;;;15.17;9.60;;;18.60;99.90;;;;;;5116368;28;20559;-83
2022/10/13 12:30:27;;;;;;;10.07;7.57;;;18.40;99.90;;;;;;5116410;28;20178;-84
2022/10/13 12:32:55;;;;;;;15.23;8.57;;;18.00;99.90;;;;;;5116288;28;20186;-85
2022/10/13 12:35:27;;;;;;;12.07;6.77;;;17.80;99.90;;;;;;5116641;28;20186;-83
2022/10/13 12:37:54;;;;;;;11.33;6.43;;;17.70;99.90;;;;;;5116306;28;20198;-83
2022/10/13 12:40:21;;;;;;;13.93;6.43;;;17.60;99.90;;;;;;5115945;28;20194;-84
2022/10/13 12:42:47;;;;;;;10.33;6.23;;;17.70;99.90;;;;;;5117599;28;20268;-83
2022/10/13 12:45:16;;;;;;;12.43;5.40;;;17.70;99.90;;;;;;5116515;28;20178;-83
2022/10/13 12:47:48;;;;;;;16.67;6.13;;;17.90;99.90;;;;;;5116282;28;20201;-82
2022/10/13 12:50:28;;;;;;;12.87;8.33;;;17.90;99.90;;;;;;5115587;28;20520;-84
2022/10/13 12:52:54;;;;;;;12.57;6.70;;;18.00;99.90;;;;;;5116142;28;20696;-83
2022/10/13 12:55:21;;;;;;;8.73;6.63;;;18.10;99.90;;;;;;5116827;28;20217;-82
2022/10/13 12:57:49;;;;;;;12.23;8.23;;;18.20;99.90;;;;;;5117071;28;20555;-83
2022/10/13 13:00:18;;;;;;;8.80;6.00;;;18.20;99.90;;;;;;5116272;28;20650;-81
2022/10/13 13:03:02;;;;;;;13.97;6.50;;;17.90;99.90;;;;;;5118078;28;20199;-82
2022/10/13 13:05:36;;;;;;;7.47;6.17;;;17.70;99.90;;;;;;5115436;28;20180;-84
2022/10/13 13:08:04;;;;;;;12.63;6.20;;;17.60;99.90;;;;;;5118594;28;20685;-85
2022/10/13 13:10:30;;;;;;;13.43;6.40;;;17.60;99.90;;;;;;5122411;28;20180;-83
2022/10/13 13:13:11;;;;;;;6.57;5.70;;;17.70;99.90;;;;;;5119747;28;20723;-83
2022/10/13 13:15:37;;;;;;;14.37;6.50;;;18.00;99.90;;;;;;5119676;28;20177;-82
2022/10/13 13:18:25;;;;;;;12.20;6.37;;;18.00;99.90;;;;;;5118551;28;20204;-83
2022/10/13 13:20:51;;;;;;;9.43;6.27;;;18.00;99.90;;;;;;5119267;28;20260;-82
2022/10/13 13:23:19;;;;;;;8.80;6.43;;;17.90;99.90;;;;;;5118933;28;20235;-83
2022/10/13 13:25:46;;;;;;;8.57;5.77;;;17.70;99.90;;;;;;5118058;28;20259;-83
2022/10/13 13:28:13;;;;;;;13.67;7.07;;;17.70;99.90;;;;;;5119189;28;20213;-82
2022/10/13 13:30:40;;;;;;;11.70;7.33;;;17.50;99.90;;;;;;5117603;28;20180;-83
2022/10/13 13:33:07;;;;;;;14.80;6.87;;;17.30;99.90;;;;;;5117875;28;20279;-82
2022/10/13 13:35:33;;;;;;;12.20;7.50;;;17.10;99.90;;;;;;5117775;28;20235;-84
2022/10/13 13:37:58;;;;;;;10.57;6.80;;;17.10;99.90;;;;;;5118303;28;20199;-82
2022/10/13 13:40:26;;;;;;;12.73;7.50;;;17.10;99.90;;;;;;5118781;28;20534;-82
2022/10/13 13:42:52;;;;;;;11.20;6.53;;;17.00;99.90;;;;;;5118867;28;20202;-82
2022/10/13 13:45:20;;;;;;;13.63;7.43;;;17.00;99.90;;;;;;5120161;27;20180;-81
2022/10/13 13:47:46;;;;;;;11.60;7.33;;;17.00;99.90;;;;;;5117139;28;20284;-83
2022/10/13 13:50:24;;;;;;;13.10;7.30;;;17.00;99.90;;;;;;5119314;28;20224;-82
2022/10/13 13:52:50;;;;;;;12.77;7.37;;;16.90;99.90;;;;;;5119258;28;20172;-80
2022/10/13 13:55:16;;;;;;;10.63;7.00;;;16.80;99.90;;;;;;5117808;28;20180;-81
2022/10/13 13:57:42;;;;;;;14.90;6.60;;;16.90;99.90;;;;;;5118951;27;20250;-81
2022/10/13 14:00:11;;;;;;;14.57;7.73;;;16.80;99.90;;;;;;5117633;28;20223;-82
2022/10/13 14:02:37;;;;;;;7.53;6.40;;;16.80;99.90;;;;;;5119568;28;20655;-83
2022/10/13 14:05:03;;;;;;;9.80;7.03;;;16.70;99.90;;;;;;5117605;28;20178;-81
2022/10/13 14:07:29;;;;;;;13.40;7.43;;;16.70;99.90;;;;;;5117923;28;20195;-83
2022/10/13 14:09:55;;;;;;;12.03;7.43;;;16.60;99.90;;;;;;5117622;28;20183;-82
2022/10/13 14:12:21;;;;;;;11.17;7.90;;;16.60;99.90;;;;;;5118689;28;20215;-82
2022/10/13 14:14:46;;;;;;;12.70;7.57;;;16.50;99.90;;;;;;5118315;28;20176;-81
2022/10/13 14:17:12;;;;;;;13.63;8.03;;;16.40;99.90;;;;;;5117802;28;20199;-82
2022/10/13 14:19:38;;;;;;;13.73;8.90;;;16.30;99.90;;;;;;5119811;28;20179;-82
2022/10/13 14:22:03;;;;;;;15.07;8.57;;;16.20;99.90;;;;;;5118726;28;20210;-82
2022/10/13 14:24:29;;;;;;;12.13;7.40;;;16.20;99.90;;;;;;5119927;28;20228;-82
2022/10/13 14:26:55;;;;;;;15.77;8.37;;;16.20;99.90;;;;;;5119066;28;20195;-82
2022/10/13 14:29:20;;;;;;;14.30;10.77;;;16.10;99.90;;;;;;5118808;28;20167;-84
2022/10/13 14:31:46;;;;;;;21.60;12.17;;;16.10;99.90;;;;;;5120608;28;20171;-82
2022/10/13 14:34:12;;;;;;;24.97;15.37;;;16.00;99.90;;;;;;5120292;28;20171;-82
2022/10/13 14:36:37;;;;;;;15.33;9.63;;;16.00;99.90;;;;;;5119670;28;20182;-81
2022/10/13 14:39:03;;;;;;;18.50;9.23;;;15.90;99.90;;;;;;5119647;28;20171;-82
2022/10/13 14:41:29;;;;;;;12.83;8.17;;;15.80;99.90;;;;;;5117902;28;20202;-83
2022/10/13 14:43:55;;;;;;;16.83;12.23;;;15.80;99.90;;;;;;5117289;28;20178;-83
2022/10/13 14:46:22;;;;;;;12.00;8.80;;;15.70;99.90;;;;;;5117371;28;20204;-83
2022/10/13 14:48:48;;;;;;;15.43;10.37;;;15.70;99.90;;;;;;5116664;28;20183;-82
2022/10/13 14:51:14;;;;;;;12.73;10.30;;;15.60;99.90;;;;;;5119946;28;20164;-84
2022/10/13 14:53:43;;;;;;;18.00;8.50;;;15.60;99.90;;;;;;5118306;28;20167;-82
2022/10/13 14:56:29;;;;;;;19.20;8.57;;;15.50;99.90;;;;;;5118690;28;20177;-84
2022/10/13 14:58:59;;;;;;;9.10;7.33;;;15.50;99.90;;;;;;5117431;28;20229;-83
2022/10/13 15:01:25;;;;;;;19.67;14.57;;;15.60;99.90;;;;;;5119389;28;20226;-84
2022/10/13 15:03:51;;;;;;;17.27;12.23;;;15.60;99.90;;;;;;5118338;28;20171;-82
2022/10/13 15:06:19;;;;;;;13.63;9.87;;;15.50;99.90;;;;;;5119099;28;20220;-84
2022/10/13 15:08:46;;;;;;;13.97;9.87;;;15.50;99.90;;;;;;5119239;28;20198;-83
2022/10/13 15:11:13;;;;;;;19.07;12.20;;;15.60;99.90;;;;;;5120212;28;20195;-83
2022/10/13 15:13:39;;;;;;;12.67;8.10;;;15.60;99.90;;;;;;5122175;28;20167;-81
2022/10/13 15:16:06;;;;;;;14.47;7.37;;;15.60;99.90;;;;;;5128131;28;20175;-80
2022/10/13 15:18:35;;;;;;;12.23;6.67;;;15.70;99.90;;;;;;5134473;28;20240;-80
2022/10/13 15:21:00;;;;;;;17.17;11.80;;;15.70;99.90;;;;;;5133261;28;20178;-82
2022/10/13 15:23:26;;;;;;;11.87;6.70;;;15.70;99.90;;;;;;5134475;28;20227;-83
2022/10/13 15:25:57;;;;;;;10.23;6.37;;;15.60;99.90;;;;;;5128127;28;20182;-83
2022/10/13 15:28:33;;;;;;;12.93;6.70;;;15.60;99.90;;;;;;5118108;28;20188;-83
2022/10/13 15:30:59;;;;;;;11.63;6.83;;;15.60;99.90;;;;;;5117737;28;20180;-83
2022/10/13 15:33:24;;;;;;;15.50;6.90;;;15.60;99.90;;;;;;5116233;28;20179;-84
2022/10/13 15:35:51;;;;;;;12.77;6.50;;;15.60;99.90;;;;;;5118177;28;20176;-83
2022/10/13 15:38:18;;;;;;;11.53;5.70;;;15.50;99.90;;;;;;5118003;28;20286;-82
2022/10/13 15:40:45;;;;;;;9.10;6.60;;;15.50;99.90;;;;;;5118419;28;20179;-83
2022/10/13 15:43:11;;;;;;;12.63;7.60;;;15.40;99.90;;;;;;5117952;28;20213;-82
2022/10/13 15:45:37;;;;;;;14.70;7.50;;;15.40;99.90;;;;;;5120578;28;20160;-81
2022/10/13 15:48:05;;;;;;;17.70;10.27;;;15.30;99.90;;;;;;5127156;28;20196;-84
2022/10/13 15:50:31;;;;;;;11.23;6.73;;;15.20;99.90;;;;;;5118868;28;20182;-83
2022/10/13 15:52:57;;;;;;;11.50;5.83;;;15.20;99.90;;;;;;5119865;28;20517;-83
2022/10/13 15:55:23;;;;;;;16.40;5.83;;;15.20;99.90;;;;;;5117037;28;20187;-84
2022/10/13 15:57:50;;;;;;;10.10;5.50;;;15.10;99.90;;;;;;5119665;28;20260;-84
2022/10/13 16:00:16;;;;;;;12.47;6.37;;;15.10;99.90;;;;;;5119476;28;20179;-83
2022/10/13 16:02:42;;;;;;;8.50;5.90;;;15.00;99.90;;;;;;5118572;28;20199;-82
2022/10/13 16:05:10;;;;;;;15.77;10.27;;;15.00;99.90;;;;;;5118362;28;20249;-85
2022/10/13 16:07:38;;;;;;;10.87;7.83;;;15.00;99.90;;;;;;5117780;28;20241;-82
2022/10/13 16:10:05;;;;;;;14.57;6.23;;;14.90;99.90;;;;;;5117930;28;20191;-82
2022/10/13 16:12:30;;;;;;;12.63;5.50;;;14.90;99.90;;;;;;5119611;28;20171;-83
2022/10/13 16:14:56;;;;;;;12.97;6.53;;;14.90;99.90;;;;;;5119617;28;20242;-85
2022/10/13 16:17:22;;;;;;;10.93;6.20;;;14.80;99.90;;;;;;5117855;28;20203;-83
2022/10/13 16:19:47;;;;;;;15.87;6.60;;;14.80;99.90;;;;;;5119143;28;20183;-84
2022/10/13 16:22:13;;;;;;;10.73;6.47;;;14.80;99.90;;;;;;5121392;28;20210;-84
2022/10/13 16:24:39;;;;;;;12.27;6.50;;;14.80;99.90;;;;;;5120607;28;20172;-83
2022/10/13 16:27:05;;;;;;;12.07;7.47;;;14.70;99.90;;;;;;5119984;28;20195;-83
2022/10/13 16:29:31;;;;;;;13.37;8.63;;;14.60;99.90;;;;;;5120186;28;20675;-82
2022/10/13 16:31:57;;;;;;;12.33;7.30;;;14.50;99.90;;;;;;5119337;28;20183;-82
2022/10/13 16:34:22;;;;;;;14.10;7.67;;;14.50;99.90;;;;;;5118769;28;20183;-83
2022/10/13 16:36:49;;;;;;;17.23;6.80;;;14.40;99.90;;;;;;5118752;28;20199;-83
2022/10/13 16:39:16;;;;;;;12.40;7.23;;;14.30;99.90;;;;;;5121554;28;20187;-83
2022/10/13 16:41:45;;;;;;;15.57;7.53;;;14.30;99.90;;;;;;5136870;28;20207;-83
2022/10/13 16:44:12;;;;;;;14.03;8.17;;;14.20;99.90;;;;;;5131304;27;20228;-82
2022/10/13 16:46:41;;;;;;;23.93;12.80;;;14.20;99.90;;;;;;5130286;27;20184;-82
2022/10/13 16:49:08;;;;;;;47.97;31.13;;;14.20;99.90;;;;;;5123372;28;20171;-82
2022/10/13 16:51:34;;;;;;;35.40;24.37;;;14.10;99.90;;;;;;5103052;28;20272;-78
2022/10/13 16:54:00;;;;;;;30.73;18.73;;;14.10;99.90;;;;;;5122335;28;20172;-80
2022/10/13 16:56:27;;;;;;;28.93;15.87;;;14.00;99.90;;;;;;5103944;28;20244;-82
2022/10/13 16:58:57;;;;;;;12.53;9.47;;;14.00;99.90;;;;;;5121425;28;20168;-82
2022/10/13 17:01:25;;;;;;;15.33;9.67;;;13.90;99.90;;;;;;5121741;28;20191;-82
2022/10/13 17:03:52;;;;;;;20.40;7.10;;;13.90;99.90;;;;;;5123420;28;20206;-82
2022/10/13 17:06:20;;;;;;;13.83;10.07;;;13.80;99.90;;;;;;5121978;28;20179;-83
2022/10/13 17:08:46;;;;;;;13.07;7.07;;;13.80;99.90;;;;;;5122967;28;20278;-84
2022/10/13 17:11:20;;;;;;;17.27;7.90;;;13.90;99.90;;;;;;5121217;28;20175;-83
2022/10/13 17:13:46;;;;;;;12.50;7.40;;;13.80;99.90;;;;;;5120062;28;20183;-83
2022/10/13 17:16:12;;;;;;;9.63;6.70;;;13.80;99.90;;;;;;5122359;28;20163;-84
2022/10/13 17:18:38;;;;;;;15.90;7.87;;;13.80;99.90;;;;;;5120764;28;20203;-82
2022/10/13 17:21:07;;;;;;;13.67;7.57;;;13.80;99.90;;;;;;5119457;28;20184;-83
2022/10/13 17:23:34;;;;;;;11.50;7.97;;;13.80;99.90;;;;;;5120197;28;20582;-84
2022/10/13 17:26:03;;;;;;;11.73;7.53;;;13.80;99.90;;;;;;5121078;28;20175;-84
2022/10/13 17:28:28;;;;;;;12.90;6.67;;;13.80;99.90;;;;;;5120679;28;20192;-83
2022/10/13 17:30:58;;;;;;;11.03;6.43;;;13.80;99.90;;;;;;5121196;28;20179;-83
2022/10/13 17:33:25;;;;;;;10.97;6.43;;;13.80;99.90;;;;;;5120954;28;20176;-83
2022/10/13 17:35:50;;;;;;;12.70;6.97;;;13.80;99.90;;;;;;5119723;28;20176;-84
2022/10/13 17:38:16;;;;;;;9.23;6.30;;;13.70;99.90;;;;;;5121319;28;20319;-83
2022/10/13 17:40:42;;;;;;;9.13;7.17;;;13.70;99.90;;;;;;5120378;28;20175;-83
2022/10/13 17:43:07;;;;;;;16.80;8.10;;;13.60;99.90;;;;;;5120385;28;20740;-85
2022/10/13 17:45:33;;;;;;;16.43;9.40;;;13.60;99.90;;;;;;5122178;28;20641;-84
2022/10/13 17:47:59;;;;;;;17.77;9.77;;;13.60;99.90;;;;;;5119186;28;20622;-85
2022/10/13 17:50:26;;;;;;;12.07;7.83;;;13.60;99.90;;;;;;5119422;28;20167;-84
2022/10/13 17:52:52;;;;;;;11.77;8.10;;;13.60;99.90;;;;;;5119615;28;20182;-82
2022/10/13 17:55:18;;;;;;;14.47;9.50;;;13.60;99.90;;;;;;5119679;28;20737;-83
2022/10/13 17:57:43;;;;;;;14.53;9.20;;;13.60;99.90;;;;;;5118169;28;20199;-83
2022/10/13 18:00:10;;;;;;;16.83;9.63;;;13.60;99.90;;;;;;5118411;28;20719;-85
2022/10/13 18:02:35;;;;;;;19.43;10.00;;;13.50;99.90;;;;;;5117890;28;20227;-83
2022/10/13 18:05:01;;;;;;;16.70;9.93;;;13.50;99.90;;;;;;5120152;28;20174;-83
2022/10/13 18:07:27;;;;;;;16.27;10.00;;;13.40;99.90;;;;;;5118679;28;20782;-84
2022/10/13 18:09:52;;;;;;;17.93;9.23;;;13.40;99.90;;;;;;5118657;28;20256;-82
2022/10/13 18:12:18;;;;;;;11.57;8.60;;;13.40;99.90;;;;;;5119710;28;20182;-82
2022/10/13 18:14:44;;;;;;;11.97;7.87;;;13.40;99.90;;;;;;5119584;28;20233;-82
2022/10/13 18:17:10;;;;;;;13.33;8.67;;;13.40;99.90;;;;;;5117893;28;20568;-83
2022/10/13 18:19:36;;;;;;;11.10;8.17;;;13.30;99.90;;;;;;5120107;28;20232;-83
2022/10/13 18:22:02;;;;;;;12.47;8.40;;;13.30;99.90;;;;;;5119081;28;20227;-83
2022/10/13 18:24:27;;;;;;;13.27;7.70;;;13.30;99.90;;;;;;5118377;28;20176;-83
2022/10/13 18:26:53;;;;;;;14.20;7.07;;;13.30;99.90;;;;;;5119945;28;20203;-82
2022/10/13 18:29:19;;;;;;;10.83;7.57;;;13.30;99.90;;;;;;5119981;28;20175;-82
2022/10/13 18:31:45;;;;;;;17.17;12.50;;;13.30;99.90;;;;;;5118461;28;20209;-83
2022/10/13 18:34:15;;;;;;;19.07;11.03;;;13.30;99.90;;;;;;5117823;28;20191;-83
2022/10/13 18:36:45;;;;;;;15.60;9.30;;;13.30;99.90;;;;;;5117831;28;20175;-82
2022/10/13 18:39:14;;;;;;;16.23;11.87;;;13.30;99.90;;;;;;5119418;28;20200;-83
2022/10/13 18:41:41;;;;;;;21.00;9.47;;;13.20;99.90;;;;;;5119096;28;20223;-84
2022/10/13 18:44:07;;;;;;;21.97;9.43;;;13.20;99.90;;;;;;5118023;28;20182;-83
2022/10/13 18:46:35;;;;;;;18.63;10.17;;;13.20;99.90;;;;;;5119349;28;20208;-83
2022/10/13 18:49:02;;;;;;;13.50;8.60;;;13.20;99.90;;;;;;5117850;28;20190;-82
2022/10/13 18:51:29;;;;;;;14.20;8.40;;;13.10;99.90;;;;;;5119332;28;20640;-83
2022/10/13 18:53:55;;;;;;;14.47;7.43;;;13.10;99.90;;;;;;5119426;28;20239;-83
2022/10/13 18:56:24;;;;;;;13.17;8.13;;;13.00;99.90;;;;;;5119897;28;20617;-82
2022/10/13 18:58:50;;;;;;;14.30;8.27;;;13.00;99.90;;;;;;5119593;28;20178;-83
2022/10/13 19:01:20;;;;;;;18.80;9.57;;;13.00;99.90;;;;;;5118485;28;20179;-84
2022/10/13 19:03:48;;;;;;;20.47;10.93;;;13.00;99.90;;;;;;5118152;28;20186;-83
2022/10/13 19:06:15;;;;;;;17.63;10.80;;;13.00;99.90;;;;;;5116968;28;20547;-83
2022/10/13 19:08:41;;;;;;;14.90;9.80;;;13.00;99.90;;;;;;5117580;28;20195;-82
2022/10/13 19:11:15;;;;;;;14.83;8.87;;;13.00;99.90;;;;;;5118749;28;20197;-83
2022/10/13 19:13:41;;;;;;;15.50;8.40;;;13.00;99.90;;;;;;5117307;28;20533;-84
2022/10/13 19:16:07;;;;;;;13.60;8.07;;;13.10;99.90;;;;;;5117152;28;20235;-83
2022/10/13 19:18:34;;;;;;;11.50;7.47;;;13.10;99.90;;;;;;5116469;28;20611;-82
2022/10/13 19:21:00;;;;;;;14.60;7.93;;;13.10;99.90;;;;;;5116759;28;20548;-83
2022/10/13 19:23:25;;;;;;;14.80;7.50;;;13.00;99.90;;;;;;5116742;28;20262;-83
2022/10/13 19:25:51;;;;;;;12.20;7.60;;;13.00;99.90;;;;;;5117782;28;20199;-86
2022/10/13 19:28:17;;;;;;;10.97;7.97;;;13.00;99.90;;;;;;5117781;28;20700;-85
2022/10/13 19:30:43;;;;;;;9.33;6.47;;;13.00;99.90;;;;;;5118701;28;20175;-85
2022/10/13 19:33:11;;;;;;;11.87;7.40;;;13.10;99.90;;;;;;5118886;28;20232;-81
2022/10/13 19:35:41;;;;;;;10.27;7.10;;;13.00;99.90;;;;;;5120238;28;20175;-83
2022/10/13 19:38:07;;;;;;;14.63;7.77;;;13.00;99.90;;;;;;5124427;28;20194;-84
2022/10/13 19:40:33;;;;;;;10.67;7.43;;;13.00;99.90;;;;;;5115882;28;20182;-82
2022/10/13 19:42:58;;;;;;;12.60;7.80;;;13.00;99.90;;;;;;5117401;28;20238;-82
2022/10/13 19:45:24;;;;;;;13.80;8.00;;;12.90;99.90;;;;;;5117648;28;20204;-81
2022/10/13 19:47:50;;;;;;;12.00;8.27;;;12.90;99.90;;;;;;5115434;28;20200;-83
2022/10/13 19:50:15;;;;;;;16.00;7.40;;;12.90;99.90;;;;;;5117526;28;20259;-84
2022/10/13 19:52:41;;;;;;;10.60;7.63;;;12.90;99.90;;;;;;5117198;28;20513;-82
2022/10/13 19:55:08;;;;;;;9.27;7.57;;;12.90;99.90;;;;;;5116111;28;20175;-83
2022/10/13 19:57:33;;;;;;;16.97;7.60;;;12.80;99.90;;;;;;5115974;28;20203;-82
2022/10/13 19:59:59;;;;;;;10.57;7.17;;;12.80;99.90;;;;;;5117344;28;20183;-82
2022/10/13 20:02:25;;;;;;;11.13;7.10;;;12.80;99.90;;;;;;5115714;28;20207;-81
2022/10/13 20:04:50;;;;;;;11.93;6.57;;;12.80;99.90;;;;;;5116011;28;20547;-82
2022/10/13 20:07:16;;;;;;;8.40;6.30;;;12.80;99.90;;;;;;5117618;28;20223;-82
2022/10/13 20:09:42;;;;;;;9.93;6.13;;;12.80;99.90;;;;;;5116371;28;20182;-84
2022/10/13 20:12:08;;;;;;;16.60;6.50;;;12.80;99.90;;;;;;5116989;28;20676;-83
2022/10/13 20:14:34;;;;;;;9.13;6.07;;;12.90;99.90;;;;;;5116843;28;20180;-83
2022/10/13 20:17:00;;;;;;;12.40;7.37;;;12.90;99.90;;;;;;5117314;28;20202;-83
2022/10/13 20:19:26;;;;;;;14.60;7.93;;;12.90;99.90;;;;;;5117900;28;20207;-81
2022/10/13 20:21:51;;;;;;;10.73;6.63;;;12.90;99.90;;;;;;5115514;28;20207;-82
2022/10/13 20:24:20;;;;;;;11.70;7.40;;;12.80;99.90;;;;;;5115856;28;20578;-82
2022/10/13 20:26:46;;;;;;;10.00;6.67;;;12.80;99.90;;;;;;5116696;28;20202;-83
2022/10/13 20:29:11;;;;;;;12.57;7.13;;;12.80;99.90;;;;;;5115134;28;20176;-82
2022/10/13 20:31:37;;;;;;;11.67;7.17;;;12.80;99.90;;;;;;5116749;28;20648;-82
2022/10/13 20:34:03;;;;;;;9.50;6.43;;;12.80;99.90;;;;;;5115118;28;20183;-82
2022/10/13 20:36:28;;;;;;;9.47;6.47;;;12.80;99.90;;;;;;5116345;28;20247;-84
2022/10/13 20:38:54;;;;;;;9.90;5.20;;;12.70;99.90;;;;;;5116080;28;20187;-83
2022/10/13 20:41:23;;;;;;;7.47;4.30;;;12.70;99.90;;;;;;5115095;28;20179;-82
2022/10/13 20:43:50;;;;;;;9.67;4.77;;;12.80;99.90;;;;;;5116992;28;20201;-82
2022/10/13 20:46:19;;;;;;;6.93;5.37;;;12.80;99.90;;;;;;5116301;28;20172;-82
2022/10/13 20:48:45;;;;;;;12.03;5.83;;;12.80;99.90;;;;;;5118391;28;20199;-82
2022/10/13 20:51:14;;;;;;;9.60;5.10;;;12.80;99.90;;;;;;5117991;28;20183;-83
2022/10/13 20:53:42;;;;;;;7.13;5.13;;;12.70;99.90;;;;;;5118797;28;20202;-82
2022/10/13 20:56:12;;;;;;;8.37;5.13;;;12.80;99.90;;;;;;5115837;28;20261;-83
2022/10/13 20:58:39;;;;;;;6.80;5.10;;;12.80;99.90;;;;;;5114989;28;20265;-82
2022/10/13 21:01:05;;;;;;;11.97;4.53;;;12.70;99.90;;;;;;5115732;28;20183;-81
2022/10/13 21:03:31;;;;;;;8.77;4.50;;;12.70;99.90;;;;;;5116518;28;20208;-80
2022/10/13 21:05:57;;;;;;;7.13;4.90;;;12.70;99.90;;;;;;5118370;28;20626;-81
2022/10/13 21:08:22;;;;;;;5.97;4.60;;;12.60;99.90;;;;;;5115374;28;20203;-81